PWSweather.com
Personal Weather Stations
Station Observations
KWIATHEL1
Marinette County, Athelstane, WI 54104

Marinette CountyAthelstane, WI 54104

Lat: 45.4, Lon: -88.12

Elevation: 960

Station Type: Acurite 5in1 Pro

http://weather.athelstanewi.com

Latest ConditionsUpdated 10:00:01 AM CDT Saturday, Apr 30, 2016
Currently Today's Max Today's Min Today's Average
Temperature 54.2°F12.3°C 54.2°F12.3°C 30.2°F-1.0°C 37.2°F2.9°C
Dew Point 33.9°F1.1°C 35.0°F1.7°C 27.0°F-2.8°C 30.7°F-0.7°C
Winds 2.3 mph ESE3.7 kmh ESE 3.5 mph ESE5.6 kmh ESE - 0.2 mph 0.3 kmh
Wind Gusts 3.5 mph5.6 kmh 6.9 mph11.1 kmh - -
Humidity 46% 93% 46% 79%
Pressure 30.18 in1022.0 mb 30.20 in1022.7 mb 30.16 in1021.3 mb -
Hour Temp Dew Point Humidity Winds Wind Gusts Pressure Precip Precip Rate Daily Precip Total
10:00 AM 54.2°F12.3°C 33.9°F1.1°C 46% 2.3 mph ESE3.7 kmh ESE 3.5 mph5.6 kmh 30.18 in1022.0 mb - 0.00 in0.0 mm 0.00 in0.0 mm
09:55 AM 53.8°F12.1°C 34.6°F1.4°C 48% 1.2 mph ESE1.9 kmh ESE 2.3 mph3.7 kmh 30.18 in1022.0 mb - 0.00 in0.0 mm 0.00 in0.0 mm
09:50 AM 53.8°F12.1°C 35.0°F1.7°C 49% 1.2 mph ESE1.9 kmh ESE -- 30.18 in1022.0 mb - 0.00 in0.0 mm 0.00 in0.0 mm
09:45 AM 53.6°F12.0°C 34.4°F1.3°C 48% 1.2 mph ESE1.9 kmh ESE 2.3 mph3.7 kmh 30.18 in1022.0 mb - 0.00 in0.0 mm 0.00 in0.0 mm
09:40 AM 53.8°F12.1°C 34.6°F1.4°C 48% 1.2 mph ESE1.9 kmh ESE 4.6 mph7.4 kmh 30.18 in1022.0 mb - 0.00 in0.0 mm 0.00 in0.0 mm
09:35 AM 53.8°F12.1°C 34.0°F1.1°C 47% 2.3 mph ESE3.7 kmh ESE 6.9 mph11.1 kmh 30.18 in1022.0 mb - 0.00 in0.0 mm 0.00 in0.0 mm
09:30 AM 53.7°F12.1°C 35.0°F1.7°C 49% 1.2 mph ESE1.9 kmh ESE 4.6 mph7.4 kmh 30.18 in1022.0 mb - 0.00 in0.0 mm 0.00 in0.0 mm
09:25 AM 53.1°F11.7°C 33.9°F1.1°C 48% 3.5 mph ESE5.6 kmh ESE 3.5 mph5.6 kmh 30.19 in1022.4 mb - 0.00 in0.0 mm 0.00 in0.0 mm
09:20 AM 52.7°F11.5°C 34.1°F1.2°C 49% Calm Calm 3.5 mph5.6 kmh 30.19 in1022.4 mb - 0.00 in0.0 mm 0.00 in0.0 mm
09:15 AM 52.7°F11.5°C 34.1°F1.2°C 49% 3.5 mph ESE5.6 kmh ESE 4.6 mph7.4 kmh 30.19 in1022.4 mb - 0.00 in0.0 mm 0.00 in0.0 mm
09:10 AM 51.8°F11.0°C 34.2°F1.2°C 51% 1.2 mph ESE1.9 kmh ESE 2.3 mph3.7 kmh 30.19 in1022.4 mb - 0.00 in0.0 mm 0.00 in0.0 mm
09:05 AM 51.4°F10.8°C 33.8°F1.0°C 51% 2.3 mph ESE3.7 kmh ESE 2.3 mph3.7 kmh 30.18 in1022.0 mb - 0.00 in0.0 mm 0.00 in0.0 mm
09:00 AM 51.3°F10.7°C 34.3°F1.3°C 52% 2.3 mph ESE3.7 kmh ESE 2.3 mph3.7 kmh 30.18 in1022.0 mb - 0.00 in0.0 mm 0.00 in0.0 mm
08:55 AM 51.2°F10.7°C 34.2°F1.2°C 52% 3.5 mph ESE5.6 kmh ESE 3.5 mph5.6 kmh 30.18 in1022.0 mb - 0.00 in0.0 mm 0.00 in0.0 mm
08:50 AM 51.1°F10.6°C 34.5°F1.4°C 53% 1.2 mph ESE1.9 kmh ESE -- 30.19 in1022.4 mb - 0.00 in0.0 mm 0.00 in0.0 mm
08:45 AM 50.2°F10.1°C 34.6°F1.4°C 55% 1.2 mph ESE1.9 kmh ESE 3.5 mph5.6 kmh 30.19 in1022.4 mb - 0.00 in0.0 mm 0.00 in0.0 mm
08:40 AM 49.5°F9.7°C 34.4°F1.3°C 56% Calm Calm 1.2 mph1.9 kmh 30.20 in1022.7 mb - 0.00 in0.0 mm 0.00 in0.0 mm
08:35 AM 49.2°F9.6°C 34.2°F1.2°C 56% Calm Calm -- 30.20 in1022.7 mb - 0.00 in0.0 mm 0.00 in0.0 mm
08:30 AM 49.4°F9.7°C 33.9°F1.1°C 55% Calm Calm 3.5 mph5.6 kmh 30.20 in1022.7 mb - 0.00 in0.0 mm 0.00 in0.0 mm
08:25 AM 48.1°F8.9°C 34.0°F1.1°C 58% Calm Calm -- 30.20 in1022.7 mb - 0.00 in0.0 mm 0.00 in0.0 mm
08:20 AM 48.3°F9.1°C 33.8°F1.0°C 57% Calm Calm -- 30.20 in1022.7 mb - 0.00 in0.0 mm 0.00 in0.0 mm
08:15 AM 47.3°F8.5°C 34.1°F1.2°C 60% Calm Calm -- 30.20 in1022.7 mb - 0.00 in0.0 mm 0.00 in0.0 mm
08:10 AM 46.8°F8.2°C 33.6°F0.9°C 60% Calm Calm -- 30.20 in1022.7 mb - 0.00 in0.0 mm 0.00 in0.0 mm
08:05 AM 46.0°F7.8°C 33.7°F0.9°C 62% Calm Calm -- 30.20 in1022.7 mb - 0.00 in0.0 mm 0.00 in0.0 mm
08:00 AM 45.3°F7.4°C 33.8°F1.0°C 64% Calm Calm -- 30.20 in1022.7 mb - 0.00 in0.0 mm 0.00 in0.0 mm
07:55 AM 44.7°F7.1°C 33.7°F0.9°C 65% Calm Calm 1.2 mph1.9 kmh 30.20 in1022.7 mb - 0.00 in0.0 mm 0.00 in0.0 mm
07:50 AM 44.2°F6.8°C 33.2°F0.7°C 65% Calm Calm -- 30.20 in1022.7 mb - 0.00 in0.0 mm 0.00 in0.0 mm
07:45 AM 43.9°F6.6°C 33.3°F0.7°C 66% Calm Calm -- 30.20 in1022.7 mb - 0.00 in0.0 mm 0.00 in0.0 mm
07:40 AM 43.3°F6.3°C 33.5°F0.8°C 68% Calm Calm -- 30.20 in1022.7 mb - 0.00 in0.0 mm 0.00 in0.0 mm
07:35 AM 42.6°F5.9°C 33.1°F0.6°C 69% Calm Calm -- 30.20 in1022.7 mb - 0.00 in0.0 mm 0.00 in0.0 mm
07:30 AM 41.5°F5.3°C 33.5°F0.8°C 73% Calm Calm -- 30.20 in1022.7 mb - 0.00 in0.0 mm 0.00 in0.0 mm
07:25 AM 40.6°F4.8°C 33.3°F0.7°C 75% Calm Calm 1.2 mph1.9 kmh 30.20 in1022.7 mb - 0.00 in0.0 mm 0.00 in0.0 mm
07:20 AM 39.6°F4.2°C 33.0°F0.6°C 77% Calm Calm -- 30.20 in1022.7 mb - 0.00 in0.0 mm 0.00 in0.0 mm
07:15 AM 38.7°F3.7°C 33.1°F0.6°C 80% Calm Calm -- 30.20 in1022.7 mb - 0.00 in0.0 mm 0.00 in0.0 mm
07:10 AM 38.1°F3.4°C 32.5°F0.3°C 80% Calm Calm -- 30.20 in1022.7 mb - 0.00 in0.0 mm 0.00 in0.0 mm
07:05 AM 37.4°F3.0°C 32.7°F0.4°C 83% Calm Calm -- 30.19 in1022.4 mb - 0.00 in0.0 mm 0.00 in0.0 mm
07:00 AM 36.4°F2.4°C 32.6°F0.3°C 86% Calm Calm -- 30.19 in1022.4 mb - 0.00 in0.0 mm 0.00 in0.0 mm
06:55 AM 35.8°F2.1°C 32.3°F0.2°C 87% Calm Calm -- 30.19 in1022.4 mb - 0.00 in0.0 mm 0.00 in0.0 mm
06:50 AM 35.3°F1.8°C 31.8°F-0.1°C 87% Calm Calm -- 30.19 in1022.4 mb - 0.00 in0.0 mm 0.00 in0.0 mm
06:45 AM 34.3°F1.3°C 31.7°F-0.2°C 90% Calm Calm -- 30.19 in1022.4 mb - 0.00 in0.0 mm 0.00 in0.0 mm
06:40 AM 33.7°F0.9°C 31.4°F-0.3°C 91% Calm Calm -- 30.19 in1022.4 mb - 0.00 in0.0 mm 0.00 in0.0 mm
06:35 AM 33.3°F0.7°C 31.0°F-0.6°C 91% Calm Calm -- 30.19 in1022.4 mb - 0.00 in0.0 mm 0.00 in0.0 mm
06:30 AM 32.6°F0.3°C 30.5°F-0.8°C 92% Calm Calm -- 30.19 in1022.4 mb - 0.00 in0.0 mm 0.00 in0.0 mm
06:25 AM 32.2°F0.1°C 30.1°F-1.1°C 92% Calm Calm -- 30.19 in1022.4 mb - 0.00 in0.0 mm 0.00 in0.0 mm
06:20 AM 32.0°F0.0°C 29.9°F-1.2°C 92% Calm Calm -- 30.19 in1022.4 mb - 0.00 in0.0 mm 0.00 in0.0 mm
06:15 AM 31.6°F-0.2°C 29.5°F-1.4°C 92% Calm Calm -- 30.19 in1022.4 mb - 0.00 in0.0 mm 0.00 in0.0 mm
06:10 AM 31.1°F-0.5°C 29.3°F-1.5°C 93% Calm Calm -- 30.19 in1022.4 mb - 0.00 in0.0 mm 0.00 in0.0 mm
06:05 AM 30.9°F-0.6°C 29.1°F-1.6°C 93% Calm Calm -- 30.19 in1022.4 mb - 0.00 in0.0 mm 0.00 in0.0 mm
06:00 AM 30.6°F-0.8°C 28.8°F-1.8°C 93% Calm Calm -- 30.19 in1022.4 mb - 0.00 in0.0 mm 0.00 in0.0 mm
05:55 AM 30.4°F-0.9°C 28.6°F-1.9°C 93% Calm Calm -- 30.19 in1022.4 mb - 0.00 in0.0 mm 0.00 in0.0 mm
05:50 AM 30.4°F-0.9°C 28.6°F-1.9°C 93% Calm Calm -- 30.18 in1022.0 mb - 0.00 in0.0 mm 0.00 in0.0 mm
05:45 AM 30.6°F-0.8°C 28.8°F-1.8°C 93% Calm Calm -- 30.18 in1022.0 mb - 0.00 in0.0 mm 0.00 in0.0 mm
05:40 AM 30.2°F-1.0°C 28.4°F-2.0°C 93% Calm Calm -- 30.18 in1022.0 mb - 0.00 in0.0 mm 0.00 in0.0 mm
05:35 AM 30.2°F-1.0°C 28.4°F-2.0°C 93% Calm Calm -- 30.18 in1022.0 mb - 0.00 in0.0 mm 0.00 in0.0 mm
05:30 AM 30.4°F-0.9°C 28.6°F-1.9°C 93% Calm Calm -- 30.18 in1022.0 mb - 0.00 in0.0 mm 0.00 in0.0 mm
05:25 AM 30.4°F-0.9°C 28.6°F-1.9°C 93% Calm Calm -- 30.19 in1022.4 mb - 0.00 in0.0 mm 0.00 in0.0 mm
05:20 AM 30.4°F-0.9°C 28.6°F-1.9°C 93% Calm Calm -- 30.19 in1022.4 mb - 0.00 in0.0 mm 0.00 in0.0 mm
05:15 AM 30.4°F-0.9°C 28.6°F-1.9°C 93% Calm Calm -- 30.19 in1022.4 mb - 0.00 in0.0 mm 0.00 in0.0 mm
05:10 AM 30.4°F-0.9°C 28.4°F-2.0°C 92% Calm Calm -- 30.19 in1022.4 mb - 0.00 in0.0 mm 0.00 in0.0 mm
05:05 AM 30.5°F-0.8°C 28.4°F-2.0°C 92% Calm Calm -- 30.18 in1022.0 mb - 0.00 in0.0 mm 0.00 in0.0 mm
05:00 AM 30.6°F-0.8°C 28.6°F-1.9°C 92% Calm Calm -- 30.18 in1022.0 mb - 0.00 in0.0 mm 0.00 in0.0 mm
04:55 AM 30.5°F-0.8°C 28.5°F-1.9°C 92% Calm Calm -- 30.18 in1022.0 mb - 0.00 in0.0 mm 0.00 in0.0 mm
04:50 AM 30.6°F-0.8°C 28.6°F-1.9°C 92% Calm Calm -- 30.16 in1021.3 mb - 0.00 in0.0 mm 0.00 in0.0 mm
04:45 AM 30.6°F-0.8°C 28.3°F-2.1°C 91% Calm Calm -- 30.16 in1021.3 mb - 0.00 in0.0 mm 0.00 in0.0 mm
04:40 AM 30.7°F-0.7°C 28.4°F-2.0°C 91% Calm Calm -- 30.16 in1021.3 mb - 0.00 in0.0 mm 0.00 in0.0 mm
04:35 AM 30.7°F-0.7°C 28.4°F-2.0°C 91% Calm Calm -- 30.16 in1021.3 mb - 0.00 in0.0 mm 0.00 in0.0 mm
04:30 AM 30.7°F-0.7°C 28.4°F-2.0°C 91% Calm Calm -- 30.16 in1021.3 mb - 0.00 in0.0 mm 0.00 in0.0 mm
04:25 AM 30.9°F-0.6°C 28.6°F-1.9°C 91% Calm Calm -- 30.17 in1021.7 mb - 0.00 in0.0 mm 0.00 in0.0 mm
04:20 AM 30.9°F-0.6°C 28.6°F-1.9°C 91% Calm Calm -- 30.17 in1021.7 mb - 0.00 in0.0 mm 0.00 in0.0 mm
04:15 AM 30.9°F-0.6°C 28.9°F-1.7°C 92% Calm Calm -- 30.18 in1022.0 mb - 0.00 in0.0 mm 0.00 in0.0 mm
04:10 AM 30.9°F-0.6°C 28.9°F-1.7°C 92% Calm Calm -- 30.18 in1022.0 mb - 0.00 in0.0 mm 0.00 in0.0 mm
04:05 AM 30.9°F-0.6°C 28.6°F-1.9°C 91% Calm Calm -- 30.18 in1022.0 mb - 0.00 in0.0 mm 0.00 in0.0 mm
04:00 AM 31.1°F-0.5°C 28.5°F-1.9°C 90% Calm Calm -- 30.18 in1022.0 mb - 0.00 in0.0 mm 0.00 in0.0 mm
03:55 AM 31.5°F-0.3°C 28.9°F-1.7°C 90% Calm Calm -- 30.18 in1022.0 mb - 0.00 in0.0 mm 0.00 in0.0 mm
03:50 AM 31.6°F-0.2°C 29.0°F-1.7°C 90% Calm Calm -- 30.18 in1022.0 mb - 0.00 in0.0 mm 0.00 in0.0 mm
03:45 AM 31.8°F-0.1°C 28.9°F-1.7°C 89% Calm Calm -- 30.18 in1022.0 mb - 0.00 in0.0 mm 0.00 in0.0 mm
03:40 AM 32.0°F0.0°C 29.1°F-1.6°C 89% Calm Calm -- 30.19 in1022.4 mb - 0.00 in0.0 mm 0.00 in0.0 mm
03:35 AM 32.2°F0.1°C 29.3°F-1.5°C 89% Calm Calm -- 30.19 in1022.4 mb - 0.00 in0.0 mm 0.00 in0.0 mm
03:30 AM 32.4°F0.2°C 29.5°F-1.4°C 89% Calm Calm -- 30.19 in1022.4 mb - 0.00 in0.0 mm 0.00 in0.0 mm
03:25 AM 32.5°F0.3°C 29.3°F-1.5°C 88% Calm Calm -- 30.20 in1022.7 mb - 0.00 in0.0 mm 0.00 in0.0 mm
03:20 AM 32.7°F0.4°C 29.3°F-1.5°C 87% Calm Calm -- 30.20 in1022.7 mb - 0.00 in0.0 mm 0.00 in0.0 mm
03:15 AM 32.9°F0.5°C 29.7°F-1.3°C 88% Calm Calm -- 30.20 in1022.7 mb - 0.00 in0.0 mm 0.00 in0.0 mm
03:10 AM 33.1°F0.6°C 29.7°F-1.3°C 87% Calm Calm -- 30.20 in1022.7 mb - 0.00 in0.0 mm 0.00 in0.0 mm
03:05 AM 33.3°F0.7°C 29.8°F-1.2°C 87% Calm Calm -- 30.20 in1022.7 mb - 0.00 in0.0 mm 0.00 in0.0 mm
03:00 AM 33.4°F0.8°C 29.9°F-1.2°C 87% Calm Calm -- 30.20 in1022.7 mb - 0.00 in0.0 mm 0.00 in0.0 mm
02:55 AM 33.6°F0.9°C 30.1°F-1.1°C 87% Calm Calm -- 30.20 in1022.7 mb - 0.00 in0.0 mm 0.00 in0.0 mm
02:50 AM 33.8°F1.0°C 30.1°F-1.1°C 86% Calm Calm -- 30.20 in1022.7 mb - 0.00 in0.0 mm 0.00 in0.0 mm
02:45 AM 34.0°F1.1°C 30.0°F-1.1°C 85% Calm Calm -- 30.20 in1022.7 mb - 0.00 in0.0 mm 0.00 in0.0 mm
02:40 AM 34.2°F1.2°C 30.4°F-0.9°C 86% Calm Calm -- 30.20 in1022.7 mb - 0.00 in0.0 mm 0.00 in0.0 mm
02:35 AM 34.2°F1.2°C 30.4°F-0.9°C 86% Calm Calm -- 30.20 in1022.7 mb - 0.00 in0.0 mm 0.00 in0.0 mm
02:30 AM 34.2°F1.2°C 30.2°F-1.0°C 85% Calm Calm -- 30.20 in1022.7 mb - 0.00 in0.0 mm 0.00 in0.0 mm
02:25 AM 34.3°F1.3°C 30.0°F-1.1°C 84% Calm Calm -- 30.19 in1022.4 mb - 0.00 in0.0 mm 0.00 in0.0 mm
02:20 AM 34.5°F1.4°C 30.2°F-1.0°C 84% Calm Calm -- 30.19 in1022.4 mb - 0.00 in0.0 mm 0.00 in0.0 mm
02:15 AM 34.7°F1.5°C 30.4°F-0.9°C 84% Calm Calm -- 30.19 in1022.4 mb - 0.00 in0.0 mm 0.00 in0.0 mm
02:10 AM 34.9°F1.6°C 30.6°F-0.8°C 84% Calm Calm -- 30.19 in1022.4 mb - 0.00 in0.0 mm 0.00 in0.0 mm
02:05 AM 35.0°F1.7°C 30.0°F-1.1°C 82% Calm Calm -- 30.19 in1022.4 mb - 0.00 in0.0 mm 0.00 in0.0 mm
02:00 AM 35.2°F1.8°C 30.0°F-1.1°C 81% Calm Calm -- 30.18 in1022.0 mb - 0.00 in0.0 mm 0.00 in0.0 mm
01:55 AM 35.4°F1.9°C 30.1°F-1.1°C 81% Calm Calm -- 30.18 in1022.0 mb - 0.00 in0.0 mm 0.00 in0.0 mm
01:50 AM 35.6°F2.0°C 30.6°F-0.8°C 82% Calm Calm -- 30.18 in1022.0 mb - 0.00 in0.0 mm 0.00 in0.0 mm
01:45 AM 35.4°F1.9°C 30.5°F-0.8°C 82% Calm Calm -- 30.18 in1022.0 mb - 0.00 in0.0 mm 0.00 in0.0 mm
01:40 AM 35.4°F1.9°C 30.1°F-1.1°C 81% Calm Calm -- 30.18 in1022.0 mb - 0.00 in0.0 mm 0.00 in0.0 mm
01:35 AM 35.2°F1.8°C 30.3°F-0.9°C 82% Calm Calm -- 30.18 in1022.0 mb - 0.00 in0.0 mm 0.00 in0.0 mm
01:30 AM 35.1°F1.7°C 30.5°F-0.8°C 83% Calm Calm -- 30.18 in1022.0 mb - 0.00 in0.0 mm 0.00 in0.0 mm
01:25 AM 34.9°F1.6°C 30.3°F-0.9°C 83% Calm Calm -- 30.19 in1022.4 mb - 0.00 in0.0 mm 0.00 in0.0 mm
01:20 AM 34.6°F1.4°C 30.3°F-0.9°C 84% Calm Calm -- 30.19 in1022.4 mb - 0.00 in0.0 mm 0.00 in0.0 mm
01:15 AM 34.3°F1.3°C 29.4°F-1.4°C 82% Calm Calm -- 30.18 in1022.0 mb - 0.00 in0.0 mm 0.00 in0.0 mm
01:10 AM 34.0°F1.1°C 29.4°F-1.4°C 83% Calm Calm -- 30.18 in1022.0 mb - 0.00 in0.0 mm 0.00 in0.0 mm
01:05 AM 33.6°F0.9°C 29.0°F-1.7°C 83% Calm Calm -- 30.18 in1022.0 mb - 0.00 in0.0 mm 0.00 in0.0 mm
01:00 AM 33.3°F0.7°C 28.4°F-2.0°C 82% Calm Calm -- 30.18 in1022.0 mb - 0.00 in0.0 mm 0.00 in0.0 mm
12:55 AM 33.1°F0.6°C 28.5°F-1.9°C 83% Calm Calm -- 30.18 in1022.0 mb - 0.00 in0.0 mm 0.00 in0.0 mm
12:50 AM 32.9°F0.5°C 28.3°F-2.1°C 83% Calm Calm -- 30.18 in1022.0 mb - 0.00 in0.0 mm 0.00 in0.0 mm
12:45 AM 32.5°F0.3°C 27.6°F-2.4°C 82% Calm Calm -- 30.18 in1022.0 mb - 0.00 in0.0 mm 0.00 in0.0 mm
12:40 AM 32.4°F0.2°C 27.8°F-2.3°C 83% Calm Calm -- 30.18 in1022.0 mb - 0.00 in0.0 mm 0.00 in0.0 mm
12:35 AM 32.4°F0.2°C 27.5°F-2.5°C 82% Calm Calm -- 30.18 in1022.0 mb - 0.00 in0.0 mm 0.00 in0.0 mm
12:30 AM 32.4°F0.2°C 27.5°F-2.5°C 82% Calm Calm -- 30.18 in1022.0 mb - 0.00 in0.0 mm 0.00 in0.0 mm
12:25 AM 32.4°F0.2°C 27.2°F-2.7°C 81% Calm Calm -- 30.17 in1021.7 mb - 0.00 in0.0 mm 0.00 in0.0 mm
12:20 AM 32.4°F0.2°C 27.2°F-2.7°C 81% Calm Calm -- 30.17 in1021.7 mb - 0.00 in0.0 mm 0.00 in0.0 mm
12:15 AM 32.5°F0.3°C 27.0°F-2.8°C 80% Calm Calm -- 30.17 in1021.7 mb - 0.00 in0.0 mm 0.00 in0.0 mm
12:05 AM 32.5°F0.3°C 27.0°F-2.8°C 80% Calm Calm -- 30.16 in1021.3 mb - 0.00 in0.0 mm 0.00 in0.0 mm
12:00 AM 32.5°F0.3°C 27.0°F-2.8°C 80% Calm Calm -- 30.16 in1021.3 mb - 0.00 in0.0 mm 0.00 in0.0 mm